Time;durP1;ratioP1;P1;durP2;ratioP2;P2;SDS_P1;SDS_P2;PMS_P1;PMS_P2;Temp;Humidity;BMP_temperature;BMP_pressure;BME280_temperature;BME280_humidity;BME280_pressure;Samples;Min_cycle;Max_cycle;Signal;HPM_P1;HPM_P2
2023/09/28 00:03:01;;;;;;;13.27;6.63;;;16.60;75.80;;;;;;4885697;29;20525;-93
2023/09/28 00:05:28;;;;;;;17.17;7.03;;;16.50;76.00;;;;;;4871331;29;20156;-92
2023/09/28 00:07:56;;;;;;;11.85;6.85;;;16.50;75.80;;;;;;4869675;29;20063;-93
2023/09/28 00:10:23;;;;;;;12.88;6.82;;;16.50;75.80;;;;;;4887431;29;20060;-92
2023/09/28 00:12:53;;;;;;;12.93;6.43;;;16.50;76.10;;;;;;4885786;29;20053;-92
2023/09/28 00:15:22;;;;;;;13.23;6.80;;;16.40;76.00;;;;;;4877965;29;20530;-92
2023/09/28 00:17:53;;;;;;;12.48;7.15;;;16.40;76.10;;;;;;4879900;29;20423;-92
2023/09/28 00:20:23;;;;;;;11.43;7.13;;;16.40;76.10;;;;;;4876646;29;20139;-93
2023/09/28 00:22:52;;;;;;;16.88;7.78;;;16.30;76.30;;;;;;4874056;29;20052;-93
2023/09/28 00:25:21;;;;;;;14.13;7.77;;;16.20;76.50;;;;;;4872045;29;20046;-93
2023/09/28 00:27:52;;;;;;;13.45;7.45;;;16.20;76.70;;;;;;4877813;29;20052;-92
2023/09/28 00:30:22;;;;;;;15.07;7.75;;;16.20;76.70;;;;;;4877338;29;20136;-93
2023/09/28 00:32:51;;;;;;;13.23;7.30;;;16.10;76.70;;;;;;4894931;29;20053;-93
2023/09/28 00:35:19;;;;;;;15.95;7.45;;;16.10;76.60;;;;;;4880603;29;20048;-93
2023/09/28 00:37:48;;;;;;;12.83;6.83;;;16.10;76.70;;;;;;4875982;29;20085;-93
2023/09/28 00:40:18;;;;;;;12.55;6.88;;;16.00;76.80;;;;;;4872070;29;20077;-93
2023/09/28 00:42:48;;;;;;;13.38;7.88;;;16.00;76.90;;;;;;4869417;29;20053;-93
2023/09/28 00:45:16;;;;;;;14.88;7.05;;;16.00;76.90;;;;;;4871948;29;20049;-93
2023/09/28 00:47:45;;;;;;;13.38;7.20;;;16.10;76.80;;;;;;4877183;29;20085;-94
2023/09/28 00:50:14;;;;;;;13.67;7.00;;;16.00;76.80;;;;;;4866942;29;20061;-92
2023/09/28 00:52:46;;;;;;;12.07;6.93;;;16.10;76.80;;;;;;4878498;29;20056;-92
2023/09/28 00:55:15;;;;;;;11.88;6.57;;;16.10;76.50;;;;;;4876273;29;20495;-92
2023/09/28 00:57:43;;;;;;;13.57;6.90;;;16.10;76.60;;;;;;4879822;29;20053;-92
2023/09/28 01:02:50;;;;;;;12.20;7.07;;;16.00;76.70;;;;;;4895213;29;20048;-92
2023/09/28 01:05:22;;;;;;;17.65;6.90;;;16.00;76.90;;;;;;4875353;29;20045;-92
2023/09/28 01:07:50;;;;;;;12.38;6.53;;;16.00;77.00;;;;;;4894548;29;20085;-93
2023/09/28 01:10:23;;;;;;;14.27;7.15;;;16.00;77.10;;;;;;4884911;29;20527;-92
2023/09/28 01:12:51;;;;;;;13.15;6.78;;;16.00;77.20;;;;;;4890676;29;20145;-92
2023/09/28 01:15:18;;;;;;;14.93;7.00;;;16.00;77.30;;;;;;4871892;29;20512;-93
2023/09/28 01:17:45;;;;;;;13.10;7.20;;;15.90;77.40;;;;;;4879199;29;20105;-93
2023/09/28 01:20:22;;;;;;;15.60;7.20;;;15.90;77.50;;;;;;4889271;29;20114;-93
2023/09/28 01:22:50;;;;;;;15.05;7.18;;;15.80;77.60;;;;;;4875941;29;20091;-92
2023/09/28 01:25:21;;;;;;;12.57;6.95;;;15.80;77.70;;;;;;4885202;29;20053;-92
2023/09/28 01:27:50;;;;;;;12.27;6.57;;;15.80;77.80;;;;;;4879535;29;20068;-93
2023/09/28 01:30:17;;;;;;;13.13;6.97;;;15.80;77.70;;;;;;4870979;29;20053;-92
2023/09/28 01:32:44;;;;;;;12.05;6.65;;;15.90;77.50;;;;;;4885240;29;20052;-93
2023/09/28 01:35:11;;;;;;;13.43;6.50;;;16.00;77.30;;;;;;4869950;29;20563;-92
2023/09/28 01:37:38;;;;;;;11.20;6.20;;;16.00;77.00;;;;;;4886688;29;20057;-93
2023/09/28 01:40:07;;;;;;;14.90;6.93;;;16.00;76.80;;;;;;4872693;29;20053;-93
2023/09/28 01:42:35;;;;;;;10.60;5.70;;;16.00;76.60;;;;;;4884788;29;20101;-92
2023/09/28 01:45:03;;;;;;;12.05;6.35;;;16.00;76.60;;;;;;4866917;29;20065;-92
2023/09/28 01:47:30;;;;;;;12.73;6.38;;;16.00;76.50;;;;;;4881149;29;20547;-93
2023/09/28 01:49:59;;;;;;;14.60;6.55;;;16.00;76.50;;;;;;4873189;29;20455;-92
2023/09/28 01:52:26;;;;;;;12.23;6.40;;;16.00;76.50;;;;;;4882817;29;20443;-93
2023/09/28 01:54:54;;;;;;;14.10;6.25;;;16.00;76.70;;;;;;4895530;29;20048;-92
2023/09/28 01:57:21;;;;;;;10.75;5.85;;;16.00;76.70;;;;;;4874372;29;20141;-92
2023/09/28 01:59:48;;;;;;;12.90;6.43;;;15.90;76.50;;;;;;4869958;29;20049;-93
2023/09/28 02:02:20;;;;;;;12.98;6.32;;;15.90;76.40;;;;;;4896184;29;20108;-92
2023/09/28 02:04:47;;;;;;;13.30;6.47;;;15.80;76.50;;;;;;4893171;29;20053;-93
2023/09/28 02:07:14;;;;;;;13.57;6.25;;;15.80;76.60;;;;;;4869126;29;20061;-92
2023/09/28 02:09:41;;;;;;;15.57;6.47;;;15.80;76.60;;;;;;4885359;29;20508;-93
2023/09/28 02:12:08;;;;;;;12.52;6.07;;;15.70;76.60;;;;;;4882999;29;20108;-94
2023/09/28 02:14:36;;;;;;;13.32;6.20;;;15.70;76.80;;;;;;4882177;29;20152;-93
2023/09/28 02:17:03;;;;;;;12.23;6.60;;;15.70;76.90;;;;;;4883503;29;20060;-93
2023/09/28 02:19:30;;;;;;;13.63;6.70;;;15.60;77.10;;;;;;4876865;29;20048;-93
2023/09/28 02:21:57;;;;;;;12.55;6.90;;;15.60;77.10;;;;;;4869642;29;20460;-92
2023/09/28 02:24:24;;;;;;;12.40;6.85;;;15.60;77.20;;;;;;4887493;29;20057;-93
2023/09/28 02:26:52;;;;;;;13.50;6.28;;;15.50;77.40;;;;;;4874108;29;20499;-92
2023/09/28 02:29:19;;;;;;;13.40;6.33;;;15.50;77.60;;;;;;4870484;29;20507;-92
2023/09/28 02:31:46;;;;;;;12.90;6.93;;;15.40;77.80;;;;;;4872497;29;20061;-93
2023/09/28 02:34:13;;;;;;;14.82;7.68;;;15.40;77.90;;;;;;4874189;29;20059;-92
2023/09/28 02:36:42;;;;;;;12.05;6.53;;;15.40;78.00;;;;;;4874000;29;20056;-92
2023/09/28 02:39:09;;;;;;;13.05;6.65;;;15.30;78.00;;;;;;4878045;29;20068;-93
2023/09/28 02:41:36;;;;;;;11.87;7.03;;;15.30;78.10;;;;;;4871168;29;20049;-93
2023/09/28 02:44:04;;;;;;;13.98;6.90;;;15.30;78.10;;;;;;4890820;29;20437;-93
2023/09/28 02:46:32;;;;;;;13.98;7.10;;;15.20;78.30;;;;;;4877689;29;20456;-92
2023/09/28 02:48:59;;;;;;;14.88;7.35;;;15.20;78.50;;;;;;4873341;29;20060;-92
2023/09/28 02:51:26;;;;;;;16.05;6.95;;;15.10;78.50;;;;;;4871239;29;20507;-93
2023/09/28 02:53:53;;;;;;;16.20;7.53;;;15.00;78.80;;;;;;4883089;29;20049;-93
2023/09/28 02:56:21;;;;;;;14.13;7.47;;;15.00;78.90;;;;;;4883426;29;20084;-93
2023/09/28 02:58:48;;;;;;;12.50;7.57;;;15.00;79.10;;;;;;4869396;29;20060;-92
2023/09/28 03:01:16;;;;;;;13.57;6.95;;;15.00;79.20;;;;;;4877625;29;20128;-92
2023/09/28 03:03:44;;;;;;;13.77;7.85;;;15.00;79.30;;;;;;4883239;29;20052;-93
2023/09/28 03:06:12;;;;;;;13.93;7.00;;;14.90;79.40;;;;;;4886715;29;20415;-92
2023/09/28 03:08:39;;;;;;;15.07;7.53;;;14.90;79.40;;;;;;4870930;29;20414;-93
2023/09/28 03:11:07;;;;;;;16.27;7.85;;;14.90;79.50;;;;;;4869715;29;20085;-92
2023/09/28 03:13:34;;;;;;;12.40;6.30;;;14.80;79.50;;;;;;4876825;29;20083;-92
2023/09/28 03:16:06;;;;;;;12.20;7.28;;;14.80;79.50;;;;;;4865794;29;20143;-92
2023/09/28 03:18:34;;;;;;;12.03;6.30;;;14.80;79.40;;;;;;4866665;29;20056;-93
2023/09/28 03:21:01;;;;;;;12.23;6.75;;;14.90;79.30;;;;;;4873426;29;20045;-92
2023/09/28 03:23:28;;;;;;;14.65;7.13;;;14.90;79.20;;;;;;4874660;29;20076;-94
2023/09/28 03:25:58;;;;;;;13.40;6.60;;;14.90;79.00;;;;;;4865488;29;20046;-93
2023/09/28 03:28:25;;;;;;;12.68;6.55;;;15.00;78.80;;;;;;4873829;29;20053;-92
2023/09/28 03:30:52;;;;;;;14.07;6.90;;;15.00;78.90;;;;;;4880709;29;20105;-93
2023/09/28 03:33:19;;;;;;;11.77;6.85;;;15.00;78.60;;;;;;4885834;29;20061;-93
2023/09/28 03:35:46;;;;;;;14.30;7.18;;;15.00;78.70;;;;;;4877371;29;20085;-93
2023/09/28 03:38:13;;;;;;;10.93;6.25;;;15.00;78.40;;;;;;4881881;29;20403;-93
2023/09/28 03:40:43;;;;;;;12.18;6.43;;;15.10;78.30;;;;;;4876103;29;20144;-92
2023/09/28 03:43:11;;;;;;;13.87;6.10;;;15.00;78.20;;;;;;4883109;29;20056;-92
2023/09/28 03:45:38;;;;;;;13.10;6.60;;;15.10;78.00;;;;;;4897188;29;20053;-92
2023/09/28 03:48:05;;;;;;;12.70;6.88;;;15.10;78.00;;;;;;4894505;29;20507;-93
2023/09/28 03:50:32;;;;;;;13.82;6.90;;;15.10;77.90;;;;;;4890107;29;20104;-93
2023/09/28 03:52:59;;;;;;;12.68;6.03;;;15.10;77.80;;;;;;4872603;29;20595;-92
2023/09/28 03:55:26;;;;;;;10.90;6.07;;;15.10;77.80;;;;;;4886817;29;20081;-93
2023/09/28 03:57:53;;;;;;;13.52;6.65;;;15.10;77.90;;;;;;4883159;29;20057;-93
2023/09/28 04:00:20;;;;;;;12.68;6.78;;;15.00;78.00;;;;;;4874608;29;20060;-92
2023/09/28 04:02:52;;;;;;;11.50;7.00;;;15.10;78.10;;;;;;4871111;29;20578;-92
2023/09/28 04:05:24;;;;;;;12.63;6.35;;;15.00;78.10;;;;;;4880532;29;20139;-92
2023/09/28 04:07:53;;;;;;;11.43;6.40;;;15.00;78.10;;;;;;4861726;29;20085;-92
2023/09/28 04:10:21;;;;;;;13.15;6.35;;;15.00;78.20;;;;;;4879015;29;20140;-92
2023/09/28 04:12:50;;;;;;;11.30;6.00;;;15.00;78.40;;;;;;4892961;29;20523;-93
2023/09/28 04:15:17;;;;;;;15.57;6.82;;;15.00;78.40;;;;;;4887531;29;20049;-92
2023/09/28 04:17:44;;;;;;;12.38;6.28;;;14.90;78.50;;;;;;4868321;29;20140;-92
2023/09/28 04:20:12;;;;;;;12.40;6.77;;;14.90;78.70;;;;;;4888155;29;20069;-92
2023/09/28 04:22:39;;;;;;;11.52;7.18;;;14.90;78.70;;;;;;4880738;29;20060;-92
2023/09/28 04:25:07;;;;;;;12.50;6.80;;;14.80;78.70;;;;;;4878493;29;20057;-92
2023/09/28 04:27:34;;;;;;;13.13;6.88;;;14.80;78.70;;;;;;4872157;29;20053;-93
2023/09/28 04:30:01;;;;;;;11.23;5.82;;;14.80;78.80;;;;;;4891512;29;20465;-92
2023/09/28 04:32:28;;;;;;;12.07;6.10;;;14.80;78.80;;;;;;4875659;29;20075;-92
2023/09/28 04:34:56;;;;;;;12.65;6.30;;;14.80;78.70;;;;;;4876300;29;20101;-92
2023/09/28 04:37:25;;;;;;;11.98;6.47;;;14.80;78.90;;;;;;4875678;29;20467;-92
2023/09/28 04:39:53;;;;;;;12.55;5.95;;;14.80;78.80;;;;;;4875784;29;20053;-93
2023/09/28 04:42:20;;;;;;;14.45;5.95;;;14.80;78.80;;;;;;4874482;29;20059;-92
2023/09/28 04:44:49;;;;;;;11.07;6.37;;;14.80;78.80;;;;;;4877930;29;20399;-92
2023/09/28 04:47:17;;;;;;;12.23;6.53;;;14.70;78.80;;;;;;4874703;29;20101;-93
2023/09/28 04:49:45;;;;;;;10.95;5.82;;;14.80;78.80;;;;;;4895769;29;20116;-93
2023/09/28 04:52:13;;;;;;;12.00;6.20;;;14.70;78.70;;;;;;4877001;29;20132;-94
2023/09/28 04:54:41;;;;;;;11.50;6.07;;;14.80;78.70;;;;;;4882635;29;20060;-92
2023/09/28 04:57:08;;;;;;;10.63;6.07;;;14.70;78.70;;;;;;4892554;29;20088;-93
2023/09/28 04:59:39;;;;;;;11.73;5.65;;;14.80;78.70;;;;;;4877706;29;20511;-94
2023/09/28 05:02:07;;;;;;;11.43;6.05;;;14.70;78.60;;;;;;4871915;29;20103;-92
2023/09/28 05:04:34;;;;;;;12.85;6.40;;;14.70;78.60;;;;;;4879368;29;20067;-93
2023/09/28 05:07:05;;;;;;;10.23;6.25;;;14.60;78.70;;;;;;4889389;29;20475;-93
2023/09/28 05:09:33;;;;;;;11.90;6.00;;;14.60;78.70;;;;;;4884115;29;20077;-92
2023/09/28 05:12:01;;;;;;;12.68;5.93;;;14.70;78.60;;;;;;4872565;29;20495;-92
2023/09/28 05:14:31;;;;;;;13.02;6.20;;;14.60;78.50;;;;;;4889692;29;20049;-93
2023/09/28 05:16:59;;;;;;;12.13;5.90;;;14.60;78.50;;;;;;4876733;29;20055;-87
2023/09/28 05:19:27;;;;;;;15.70;5.68;;;14.70;78.50;;;;;;4889931;29;20515;-89
2023/09/28 05:21:54;;;;;;;12.77;5.60;;;14.60;78.40;;;;;;4869298;29;20045;-88
2023/09/28 05:24:21;;;;;;;11.15;6.00;;;14.70;78.40;;;;;;4887177;29;20072;-89
2023/09/28 05:26:51;;;;;;;12.02;6.15;;;14.70;78.40;;;;;;4887022;29;20054;-89
2023/09/28 05:29:18;;;;;;;14.75;6.07;;;14.70;78.20;;;;;;4889088;29;20053;-89
2023/09/28 05:31:46;;;;;;;10.88;5.78;;;14.80;77.70;;;;;;4870103;29;20049;-89
2023/09/28 05:34:14;;;;;;;12.20;5.67;;;14.90;77.50;;;;;;4871878;29;20053;-90
2023/09/28 05:36:41;;;;;;;9.40;5.20;;;14.90;77.30;;;;;;4871871;29;20055;-90
2023/09/28 05:39:08;;;;;;;12.25;5.60;;;14.90;77.20;;;;;;4882162;29;20504;-89
2023/09/28 05:41:36;;;;;;;10.20;5.57;;;14.90;77.00;;;;;;4889367;29;20053;-89
2023/09/28 05:44:03;;;;;;;11.55;5.80;;;14.90;77.20;;;;;;4883733;29;20045;-94
2023/09/28 05:46:30;;;;;;;12.43;5.87;;;14.80;77.30;;;;;;4865773;29;20574;-91
2023/09/28 05:49:07;;;;;;;12.35;5.72;;;14.80;77.10;;;;;;4865793;29;20423;-94
2023/09/28 05:51:34;;;;;;;10.75;5.40;;;14.80;76.90;;;;;;4871664;29;20057;-92
2023/09/28 05:54:01;;;;;;;10.43;5.13;;;14.80;77.00;;;;;;4866286;29;20059;-92
2023/09/28 05:56:29;;;;;;;13.40;5.43;;;14.80;77.00;;;;;;4871587;29;20067;-91
2023/09/28 05:58:56;;;;;;;11.30;5.17;;;14.90;76.80;;;;;;4878836;29;20057;-91
2023/09/28 06:01:24;;;;;;;10.38;5.05;;;14.90;76.70;;;;;;4875676;29;20447;-92
2023/09/28 06:03:51;;;;;;;12.88;6.00;;;15.00;76.60;;;;;;4865872;29;20049;-95
2023/09/28 06:06:19;;;;;;;12.10;5.25;;;14.90;76.60;;;;;;4868662;29;20056;-95
2023/09/28 06:08:46;;;;;;;13.07;5.95;;;14.90;76.70;;;;;;4868720;29;20527;-94
2023/09/28 06:11:15;;;;;;;13.60;5.50;;;14.90;76.60;;;;;;4868653;29;20057;-93
2023/09/28 06:13:44;;;;;;;11.27;6.28;;;14.90;76.70;;;;;;4884110;29;20060;-94
2023/09/28 06:16:31;;;;;;;11.85;5.50;;;14.90;76.70;;;;;;4872997;29;20472;-94
2023/09/28 06:18:59;;;;;;;10.90;5.22;;;15.00;76.60;;;;;;4868912;29;20463;-92
2023/09/28 06:21:26;;;;;;;10.77;5.40;;;15.10;76.20;;;;;;4869224;29;20052;-93
2023/09/28 06:23:53;;;;;;;12.67;5.73;;;15.20;75.70;;;;;;4868168;29;20052;-92
2023/09/28 06:26:20;;;;;;;11.77;5.10;;;15.20;75.60;;;;;;4886087;29;20585;-93
2023/09/28 06:29:07;;;;;;;9.57;5.22;;;15.30;75.20;;;;;;4902881;29;20062;-92
2023/09/28 06:31:34;;;;;;;11.27;5.13;;;15.50;75.30;;;;;;4886837;29;20090;-91
2023/09/28 06:34:02;;;;;;;10.98;5.35;;;15.60;75.00;;;;;;4903089;29;20052;-93
2023/09/28 06:36:29;;;;;;;9.77;5.27;;;15.70;74.50;;;;;;4887342;29;20138;-92
2023/09/28 06:39:00;;;;;;;10.35;5.18;;;15.80;74.10;;;;;;4887251;29;20472;-93
2023/09/28 06:41:28;;;;;;;11.90;5.18;;;16.00;73.80;;;;;;4903442;29;20087;-92
2023/09/28 06:43:55;;;;;;;10.50;4.75;;;16.10;73.60;;;;;;4887855;29;20048;-93
2023/09/28 06:46:23;;;;;;;11.18;5.38;;;16.20;73.50;;;;;;4887854;29;20052;-92
2023/09/28 06:48:50;;;;;;;12.00;5.23;;;16.30;72.90;;;;;;4903133;29;20056;-93
2023/09/28 06:51:19;;;;;;;9.13;4.50;;;16.50;72.20;;;;;;4887889;29;20051;-94
2023/09/28 06:53:47;;;;;;;10.02;4.50;;;16.60;71.70;;;;;;4882238;29;20495;-90
2023/09/28 06:56:14;;;;;;;13.48;4.95;;;16.70;71.50;;;;;;4892945;29;20076;-91
2023/09/28 06:58:41;;;;;;;11.65;5.00;;;16.80;71.80;;;;;;4871192;29;20063;-93
2023/09/28 07:01:10;;;;;;;11.37;4.50;;;17.00;70.70;;;;;;4892101;29;20051;-92
2023/09/28 07:03:37;;;;;;;9.75;4.13;;;17.00;70.90;;;;;;4896833;29;20080;-92
2023/09/28 07:06:05;;;;;;;13.77;4.90;;;17.10;70.70;;;;;;4894050;29;20132;-93
2023/09/28 07:08:32;;;;;;;8.88;4.80;;;17.30;70.80;;;;;;4874119;29;20100;-91
2023/09/28 07:11:00;;;;;;;10.60;5.25;;;17.40;70.40;;;;;;4890846;29;20060;-92
2023/09/28 07:13:27;;;;;;;9.50;4.40;;;17.50;69.80;;;;;;4871965;29;20523;-92
2023/09/28 07:15:57;;;;;;;9.68;4.53;;;17.60;69.40;;;;;;4880134;29;20149;-93
2023/09/28 07:18:25;;;;;;;9.52;4.35;;;17.80;69.40;;;;;;4878199;29;20048;-92
2023/09/28 07:20:53;;;;;;;11.10;4.18;;;17.90;69.00;;;;;;4877323;29;20076;-92
2023/09/28 07:23:20;;;;;;;9.13;3.97;;;18.00;67.80;;;;;;4875643;29;20055;-92
2023/09/28 07:25:50;;;;;;;10.63;4.27;;;18.10;67.70;;;;;;4890471;29;20411;-92
2023/09/28 07:28:18;;;;;;;9.40;4.45;;;18.20;67.80;;;;;;4887975;29;20495;-93
2023/09/28 07:30:45;;;;;;;11.00;4.38;;;18.30;68.70;;;;;;4890892;29;20067;-93
2023/09/28 07:33:15;;;;;;;11.80;4.45;;;18.50;67.30;;;;;;4875500;29;20093;-93
2023/09/28 07:35:46;;;;;;;10.73;4.60;;;18.60;66.90;;;;;;4882510;29;20052;-93
2023/09/28 07:38:13;;;;;;;11.20;4.70;;;18.70;66.00;;;;;;4892983;29;20064;-92
2023/09/28 07:40:40;;;;;;;10.57;4.03;;;18.90;66.80;;;;;;4875485;29;20139;-93
2023/09/28 07:43:14;;;;;;;10.35;4.50;;;19.00;65.60;;;;;;4895871;29;20041;-92
2023/09/28 07:45:42;;;;;;;9.32;4.65;;;19.00;65.40;;;;;;4879397;29;20055;-93
2023/09/28 07:48:11;;;;;;;12.23;4.88;;;19.10;65.00;;;;;;4873129;29;20058;-93
2023/09/28 07:50:38;;;;;;;9.37;4.17;;;19.10;65.00;;;;;;4882053;29;20455;-92
2023/09/28 07:53:05;;;;;;;10.75;4.50;;;19.20;65.30;;;;;;4877291;29;20041;-92
2023/09/28 07:55:33;;;;;;;12.05;4.70;;;19.30;65.20;;;;;;4894672;29;20419;-92
2023/09/28 07:58:00;;;;;;;12.80;4.55;;;19.50;65.00;;;;;;4894139;29;20076;-93
2023/09/28 08:00:47;;;;;;;8.90;4.38;;;19.50;64.80;;;;;;4895355;29;20053;-92
2023/09/28 08:03:14;;;;;;;8.40;3.90;;;19.60;65.00;;;;;;4888983;29;20059;-93
2023/09/28 08:05:41;;;;;;;10.40;4.25;;;19.70;64.40;;;;;;4896050;29;20056;-93
2023/09/28 08:08:08;;;;;;;11.35;4.28;;;19.90;65.70;;;;;;4892294;29;20104;-92
2023/09/28 08:10:44;;;;;;;13.23;5.38;;;20.00;64.70;;;;;;4875948;29;20044;-93
2023/09/28 08:13:11;;;;;;;10.30;4.15;;;20.10;63.30;;;;;;4869900;29;20049;-92
2023/09/28 08:15:40;;;;;;;9.60;4.33;;;20.10;62.80;;;;;;4886491;29;20439;-92
2023/09/28 08:18:08;;;;;;;14.38;4.63;;;20.20;62.30;;;;;;4874900;29;20048;-93
2023/09/28 08:20:37;;;;;;;13.40;4.38;;;20.40;60.80;;;;;;4888153;29;20049;-92
2023/09/28 08:23:04;;;;;;;8.57;4.00;;;20.50;61.60;;;;;;4895706;29;20112;-93
2023/09/28 08:25:33;;;;;;;8.90;4.00;;;20.60;61.70;;;;;;4880217;29;20071;-92
2023/09/28 08:28:00;;;;;;;9.70;4.37;;;20.80;59.00;;;;;;4877195;29;20052;-93
2023/09/28 08:30:27;;;;;;;9.30;4.05;;;21.10;59.80;;;;;;4892041;29;20478;-93
2023/09/28 08:32:54;;;;;;;10.40;3.97;;;21.10;58.60;;;;;;4890486;29;20080;-92
2023/09/28 08:35:22;;;;;;;16.30;4.43;;;21.20;59.70;;;;;;4900161;29;20056;-92
2023/09/28 08:37:49;;;;;;;24.60;4.40;;;21.30;58.30;;;;;;4876394;29;20057;-93
2023/09/28 08:40:16;;;;;;;11.40;4.00;;;21.40;57.40;;;;;;4880923;29;20048;-93
2023/09/28 08:42:47;;;;;;;9.95;4.10;;;21.50;57.70;;;;;;4876623;29;20052;-92
2023/09/28 08:45:15;;;;;;;10.70;4.18;;;21.60;57.80;;;;;;4882567;29;20538;-93
2023/09/28 08:47:49;;;;;;;8.90;3.85;;;21.60;56.50;;;;;;4882287;29;20081;-94
2023/09/28 08:50:26;;;;;;;10.13;3.92;;;21.80;54.80;;;;;;4878213;29;20055;-92
2023/09/28 08:52:54;;;;;;;8.70;3.70;;;21.90;55.10;;;;;;4878734;29;20064;-93
2023/09/28 08:55:22;;;;;;;13.10;4.45;;;22.00;55.10;;;;;;4878234;29;20056;-93
2023/09/28 08:57:50;;;;;;;11.48;3.88;;;22.10;54.60;;;;;;4894896;29;20059;-93
2023/09/28 09:00:22;;;;;;;10.00;4.43;;;22.10;56.40;;;;;;4889111;29;20415;-93
2023/09/28 09:02:55;;;;;;;11.80;4.28;;;22.30;54.40;;;;;;4882849;29;20044;-93
2023/09/28 09:05:23;;;;;;;9.60;3.93;;;22.40;54.30;;;;;;4893908;29;20088;-93
2023/09/28 09:07:51;;;;;;;10.00;3.90;;;22.50;53.40;;;;;;4877201;29;20052;-93
2023/09/28 09:10:22;;;;;;;10.93;3.90;;;22.60;51.90;;;;;;4881849;29;20526;-92
2023/09/28 09:12:49;;;;;;;10.00;3.40;;;22.60;51.00;;;;;;4893116;29;20092;-93
2023/09/28 09:15:17;;;;;;;9.38;4.18;;;22.70;51.00;;;;;;4879174;29;20052;-93
2023/09/28 09:17:44;;;;;;;9.20;3.90;;;22.70;50.80;;;;;;4879984;29;20066;-93
2023/09/28 09:20:12;;;;;;;10.80;3.47;;;22.80;51.20;;;;;;4880707;29;20048;-93
2023/09/28 09:22:40;;;;;;;11.77;3.78;;;22.90;50.90;;;;;;4879212;29;20056;-92
2023/09/28 09:25:53;;;;;;;8.90;3.47;;;23.00;49.90;;;;;;4884143;29;20057;-93
2023/09/28 09:28:32;;;;;;;17.02;4.15;;;23.00;51.40;;;;;;4892645;29;20045;-92
2023/09/28 09:31:01;;;;;;;8.40;3.50;;;23.10;51.50;;;;;;4878587;29;20563;-93
2023/09/28 09:33:28;;;;;;;9.52;3.47;;;23.20;51.00;;;;;;4876082;29;20049;-93
2023/09/28 09:35:56;;;;;;;9.00;3.45;;;23.20;51.20;;;;;;4895862;29;20107;-92
2023/09/28 09:38:28;;;;;;;10.02;2.92;;;23.30;50.20;;;;;;4883069;29;20052;-93
2023/09/28 09:41:04;;;;;;;43.38;5.43;;;23.30;50.20;;;;;;4892689;29;20428;-93
2023/09/28 09:43:35;;;;;;;12.93;3.40;;;23.40;50.70;;;;;;4891482;29;20051;-92
2023/09/28 09:46:04;;;;;;;13.15;3.80;;;23.50;51.20;;;;;;4874746;29;20051;-92
2023/09/28 09:48:38;;;;;;;11.95;3.72;;;23.50;51.60;;;;;;4884770;29;20055;-92
2023/09/28 09:51:10;;;;;;;7.47;3.13;;;23.60;49.60;;;;;;4880660;29;20040;-93
2023/09/28 09:53:42;;;;;;;9.43;3.47;;;23.60;49.70;;;;;;4888771;29;20044;-93
2023/09/28 09:56:10;;;;;;;11.20;3.73;;;23.70;50.50;;;;;;4873235;29;20407;-92
2023/09/28 09:58:48;;;;;;;10.88;3.70;;;23.70;49.10;;;;;;4894084;29;20055;-92
2023/09/28 10:01:19;;;;;;;12.48;3.72;;;23.80;49.80;;;;;;4873620;29;20045;-92
2023/09/28 10:03:52;;;;;;;9.82;3.20;;;23.80;49.70;;;;;;4880935;29;20135;-92
2023/09/28 10:06:22;;;;;;;9.13;3.75;;;23.90;50.10;;;;;;4895938;29;20050;-93
2023/09/28 10:08:50;;;;;;;6.90;3.20;;;24.00;50.70;;;;;;4882992;29;20064;-92
2023/09/28 10:11:19;;;;;;;11.07;3.38;;;24.00;49.60;;;;;;4884012;29;20071;-93
2023/09/28 10:13:50;;;;;;;8.48;3.53;;;24.00;48.40;;;;;;4883929;29;20052;-92
2023/09/28 10:16:18;;;;;;;7.07;3.03;;;24.00;48.80;;;;;;4874930;29;20136;-93
2023/09/28 10:18:47;;;;;;;10.05;3.67;;;24.10;50.00;;;;;;4875695;29;20048;-93
2023/09/28 10:21:15;;;;;;;8.80;3.30;;;24.10;49.00;;;;;;4873568;29;20051;-92
2023/09/28 10:23:42;;;;;;;8.77;2.78;;;24.10;47.90;;;;;;4889579;29;20065;-93
2023/09/28 10:26:16;;;;;;;8.55;3.30;;;24.20;48.30;;;;;;4872161;29;20139;-93
2023/09/28 10:29:06;;;;;;;7.30;3.20;;;24.30;48.00;;;;;;4881090;29;20055;-94
2023/09/28 10:31:40;;;;;;;10.88;3.25;;;24.30;48.70;;;;;;4876913;29;20100;-93
2023/09/28 10:34:27;;;;;;;10.67;3.53;;;24.40;50.40;;;;;;4890098;29;20056;-93
2023/09/28 10:37:18;;;;;;;11.15;3.75;;;24.50;49.10;;;;;;4879521;29;20055;-93
2023/09/28 10:39:51;;;;;;;7.72;3.30;;;24.50;49.40;;;;;;4878876;29;20076;-92
2023/09/28 10:42:19;;;;;;;10.82;3.50;;;24.60;48.00;;;;;;4873955;29;20056;-94
2023/09/28 10:44:49;;;;;;;8.70;3.30;;;24.60;47.50;;;;;;4884756;29;20503;-93
2023/09/28 10:47:16;;;;;;;8.80;3.60;;;24.70;49.70;;;;;;4887695;29;20092;-92
2023/09/28 10:49:43;;;;;;;11.63;3.65;;;24.80;48.10;;;;;;4895223;29;20056;-93
2023/09/28 10:52:11;;;;;;;8.48;3.45;;;24.80;47.80;;;;;;4894414;29;20051;-93
2023/09/28 10:54:39;;;;;;;12.05;3.35;;;24.90;48.00;;;;;;4886854;29;20085;-93
2023/09/28 10:57:06;;;;;;;8.43;2.90;;;24.90;47.80;;;;;;4886092;29;20121;-94
2023/09/28 10:59:36;;;;;;;8.37;3.03;;;25.00;43.80;;;;;;4894882;29;20051;-93
2023/09/28 11:02:04;;;;;;;8.55;2.83;;;25.00;43.00;;;;;;4888650;29;20080;-93
2023/09/28 11:04:32;;;;;;;11.45;3.63;;;25.10;43.20;;;;;;4890834;29;20143;-94
2023/09/28 11:07:17;;;;;;;12.63;3.40;;;25.10;42.70;;;;;;4885991;29;20168;-93
2023/09/28 11:09:44;;;;;;;12.68;3.28;;;25.10;40.80;;;;;;4877510;29;20060;-94
2023/09/28 11:12:13;;;;;;;7.97;3.30;;;25.10;39.90;;;;;;4898242;29;20048;-94
2023/09/28 11:14:44;;;;;;;7.80;2.90;;;25.10;41.10;;;;;;4876340;29;20080;-94
2023/09/28 11:17:11;;;;;;;7.50;3.00;;;25.10;42.10;;;;;;4873360;29;20503;-94
2023/09/28 11:19:38;;;;;;;10.00;3.13;;;25.20;42.70;;;;;;4869832;29;20052;-94
2023/09/28 11:22:06;;;;;;;8.82;2.78;;;25.30;42.00;;;;;;4896429;29;20128;-94
2023/09/28 11:24:34;;;;;;;9.70;3.10;;;25.30;41.70;;;;;;4875972;29;20049;-94
2023/09/28 11:27:01;;;;;;;7.95;3.20;;;25.30;42.10;;;;;;4886040;29;20045;-93
2023/09/28 11:29:28;;;;;;;13.38;2.92;;;25.40;40.90;;;;;;4895291;29;20052;-94
2023/09/28 11:31:56;;;;;;;9.15;3.33;;;25.40;40.40;;;;;;4873027;29;20053;-94
2023/09/28 11:34:41;;;;;;;9.20;3.35;;;25.40;40.80;;;;;;4892730;29;20071;-93
2023/09/28 11:37:11;;;;;;;8.83;2.70;;;25.40;40.60;;;;;;4882818;29;20071;-94
2023/09/28 11:39:39;;;;;;;8.65;2.95;;;25.50;40.10;;;;;;4897678;29;20059;-94
2023/09/28 11:42:08;;;;;;;7.28;2.78;;;25.50;41.10;;;;;;4885754;29;20044;-93
2023/09/28 11:44:37;;;;;;;9.45;3.20;;;25.60;41.20;;;;;;4887340;29;20053;-93
2023/09/28 11:47:07;;;;;;;8.52;2.97;;;25.60;40.30;;;;;;4876207;29;20044;-93
2023/09/28 11:49:41;;;;;;;9.63;2.93;;;25.70;41.20;;;;;;4874560;29;20139;-93
2023/09/28 11:52:10;;;;;;;15.82;3.13;;;25.80;41.70;;;;;;4896671;29;20048;-94
2023/09/28 11:54:37;;;;;;;12.18;3.13;;;25.80;40.40;;;;;;4873058;29;20048;-93
2023/09/28 11:57:07;;;;;;;7.68;2.70;;;25.90;41.00;;;;;;4864903;29;20420;-94
2023/09/28 11:59:36;;;;;;;12.57;2.75;;;25.90;41.60;;;;;;4891087;29;20048;-94
2023/09/28 12:02:05;;;;;;;8.67;2.83;;;25.90;39.80;;;;;;4881937;29;20116;-93
2023/09/28 12:04:33;;;;;;;8.30;2.80;;;25.90;42.70;;;;;;4871366;29;20053;-93
2023/09/28 12:07:02;;;;;;;9.57;3.13;;;25.90;40.80;;;;;;4871744;29;20078;-93
2023/09/28 12:09:31;;;;;;;7.50;3.10;;;25.90;40.00;;;;;;4882231;29;20100;-93
2023/09/28 12:11:58;;;;;;;8.43;2.92;;;26.00;40.30;;;;;;4873949;29;20054;-93
2023/09/28 12:14:26;;;;;;;8.27;3.00;;;26.10;41.90;;;;;;4870074;29;20056;-94
2023/09/28 12:16:54;;;;;;;9.75;2.75;;;26.10;41.00;;;;;;4866297;29;20052;-94
2023/09/28 12:19:21;;;;;;;9.25;3.28;;;26.10;40.60;;;;;;4891317;29;20058;-94
2023/09/28 12:21:49;;;;;;;9.73;3.72;;;26.20;40.50;;;;;;4867479;29;20093;-94
2023/09/28 12:24:16;;;;;;;12.13;2.70;;;26.20;41.40;;;;;;4901037;29;20110;-94
2023/09/28 12:26:44;;;;;;;9.10;2.77;;;26.20;40.60;;;;;;4885668;29;20091;-94
2023/09/28 12:29:11;;;;;;;10.13;2.92;;;26.20;40.70;;;;;;4877928;29;20418;-94
2023/09/28 12:31:39;;;;;;;10.65;3.20;;;26.10;40.20;;;;;;4869796;29;20566;-95
2023/09/28 12:34:06;;;;;;;9.60;3.15;;;26.20;40.70;;;;;;4869598;29;20049;-94
2023/09/28 12:36:34;;;;;;;8.00;3.00;;;26.20;39.60;;;;;;4883826;29;20120;-94
2023/09/28 12:39:01;;;;;;;11.10;3.40;;;26.20;40.40;;;;;;4893041;29;20388;-94
2023/09/28 12:41:29;;;;;;;7.18;3.40;;;26.30;39.60;;;;;;4868997;29;20420;-94
2023/09/28 12:43:57;;;;;;;13.52;4.13;;;26.20;41.50;;;;;;4881317;29;20044;-94
2023/09/28 12:46:26;;;;;;;8.85;3.30;;;26.30;40.00;;;;;;4885107;29;20057;-94
2023/09/28 12:48:55;;;;;;;11.88;3.72;;;26.30;40.40;;;;;;4899032;29;20055;-94
2023/09/28 12:51:22;;;;;;;11.60;3.50;;;26.30;39.60;;;;;;4876851;29;20555;-93